sensor_id;sensor_type;location;lat;lon;timestamp;P1;durP1;ratioP1;P2;durP2;ratioP2
26062;SDS011;13837;48.562;12.108;2022-12-13T00:01:55;135.00;;;70.50;;
26062;SDS011;13837;48.562;12.108;2022-12-13T00:04:22;99.33;;;69.23;;
26062;SDS011;13837;48.562;12.108;2022-12-13T00:06:48;103.60;;;70.27;;
26062;SDS011;13837;48.562;12.108;2022-12-13T00:09:15;94.33;;;66.43;;
26062;SDS011;13837;48.562;12.108;2022-12-13T00:11:42;101.30;;;67.73;;
26062;SDS011;13837;48.562;12.108;2022-12-13T00:14:09;114.20;;;69.10;;
26062;SDS011;13837;48.562;12.108;2022-12-13T00:16:35;93.90;;;67.37;;
26062;SDS011;13837;48.562;12.108;2022-12-13T00:19:02;106.93;;;72.33;;
26062;SDS011;13837;48.562;12.108;2022-12-13T00:21:28;99.47;;;66.40;;
26062;SDS011;13837;48.562;12.108;2022-12-13T00:23:55;105.00;;;74.57;;
26062;SDS011;13837;48.562;12.108;2022-12-13T00:26:23;105.37;;;65.00;;
26062;SDS011;13837;48.562;12.108;2022-12-13T00:28:51;98.25;;;68.45;;
26062;SDS011;13837;48.562;12.108;2022-12-13T00:31:18;75.45;;;62.22;;
26062;SDS011;13837;48.562;12.108;2022-12-13T00:33:45;71.90;;;60.60;;
26062;SDS011;13837;48.562;12.108;2022-12-13T00:36:10;64.40;;;57.05;;
26062;SDS011;13837;48.562;12.108;2022-12-13T00:38:36;66.82;;;56.03;;
26062;SDS011;13837;48.562;12.108;2022-12-13T00:41:12;70.90;;;58.08;;
26062;SDS011;13837;48.562;12.108;2022-12-13T00:43:40;86.72;;;58.67;;
26062;SDS011;13837;48.562;12.108;2022-12-13T00:46:10;77.13;;;60.58;;
26062;SDS011;13837;48.562;12.108;2022-12-13T00:48:39;79.53;;;61.67;;
26062;SDS011;13837;48.562;12.108;2022-12-13T00:51:06;76.43;;;56.38;;
26062;SDS011;13837;48.562;12.108;2022-12-13T00:53:33;85.78;;;60.92;;
26062;SDS011;13837;48.562;12.108;2022-12-13T00:55:59;86.88;;;63.33;;
26062;SDS011;13837;48.562;12.108;2022-12-13T00:58:25;95.63;;;67.55;;
26062;SDS011;13837;48.562;12.108;2022-12-13T01:00:50;102.00;;;68.38;;
26062;SDS011;13837;48.562;12.108;2022-12-13T01:03:16;85.37;;;62.47;;
26062;SDS011;13837;48.562;12.108;2022-12-13T01:05:49;81.75;;;64.80;;
26062;SDS011;13837;48.562;12.108;2022-12-13T01:08:16;88.78;;;63.83;;
26062;SDS011;13837;48.562;12.108;2022-12-13T01:10:45;107.07;;;69.33;;
26062;SDS011;13837;48.562;12.108;2022-12-13T01:13:11;92.18;;;66.00;;
26062;SDS011;13837;48.562;12.108;2022-12-13T01:15:44;110.57;;;64.97;;
26062;SDS011;13837;48.562;12.108;2022-12-13T01:18:12;89.37;;;64.00;;
26062;SDS011;13837;48.562;12.108;2022-12-13T01:20:38;103.30;;;65.83;;
26062;SDS011;13837;48.562;12.108;2022-12-13T01:23:04;93.13;;;66.30;;
26062;SDS011;13837;48.562;12.108;2022-12-13T01:25:30;127.50;;;68.63;;
26062;SDS011;13837;48.562;12.108;2022-12-13T01:27:58;96.67;;;64.97;;
26062;SDS011;13837;48.562;12.108;2022-12-13T01:30:24;92.47;;;69.37;;
26062;SDS011;13837;48.562;12.108;2022-12-13T01:32:50;105.10;;;68.67;;
26062;SDS011;13837;48.562;12.108;2022-12-13T01:35:16;103.00;;;66.73;;
26062;SDS011;13837;48.562;12.108;2022-12-13T01:37:41;97.83;;;67.00;;
26062;SDS011;13837;48.562;12.108;2022-12-13T01:40:08;77.90;;;49.13;;
26062;SDS011;13837;48.562;12.108;2022-12-13T01:42:38;77.90;;;46.70;;
26062;SDS011;13837;48.562;12.108;2022-12-13T01:45:05;81.43;;;45.60;;
26062;SDS011;13837;48.562;12.108;2022-12-13T01:47:57;71.47;;;41.93;;
26062;SDS011;13837;48.562;12.108;2022-12-13T01:50:28;69.38;;;38.40;;
26062;SDS011;13837;48.562;12.108;2022-12-13T01:53:03;66.27;;;41.67;;
26062;SDS011;13837;48.562;12.108;2022-12-13T01:55:33;74.07;;;48.30;;
26062;SDS011;13837;48.562;12.108;2022-12-13T01:58:02;63.10;;;43.70;;
26062;SDS011;13837;48.562;12.108;2022-12-13T02:00:29;69.67;;;45.30;;
26062;SDS011;13837;48.562;12.108;2022-12-13T02:02:58;65.10;;;43.20;;
26062;SDS011;13837;48.562;12.108;2022-12-13T02:05:32;72.53;;;46.93;;
26062;SDS011;13837;48.562;12.108;2022-12-13T02:08:10;76.43;;;48.27;;
26062;SDS011;13837;48.562;12.108;2022-12-13T02:10:38;83.10;;;48.92;;
26062;SDS011;13837;48.562;12.108;2022-12-13T02:13:04;70.33;;;45.90;;
26062;SDS011;13837;48.562;12.108;2022-12-13T02:18:20;79.67;;;48.27;;
26062;SDS011;13837;48.562;12.108;2022-12-13T02:41:11;83.87;;;46.27;;
26062;SDS011;13837;48.562;12.108;2022-12-13T02:43:56;71.63;;;46.63;;
26062;SDS011;13837;48.562;12.108;2022-12-13T02:46:40;66.60;;;46.50;;
26062;SDS011;13837;48.562;12.108;2022-12-13T02:49:13;73.47;;;44.63;;
26062;SDS011;13837;48.562;12.108;2022-12-13T02:51:40;68.27;;;44.63;;
26062;SDS011;13837;48.562;12.108;2022-12-13T02:54:08;63.67;;;37.47;;
26062;SDS011;13837;48.562;12.108;2022-12-13T02:56:34;57.03;;;41.10;;
26062;SDS011;13837;48.562;12.108;2022-12-13T02:59:01;54.43;;;38.67;;
26062;SDS011;13837;48.562;12.108;2022-12-13T03:07:27;57.50;;;38.40;;
26062;SDS011;13837;48.562;12.108;2022-12-13T03:10:06;62.47;;;42.43;;
26062;SDS011;13837;48.562;12.108;2022-12-13T03:15:40;71.13;;;33.97;;
26062;SDS011;13837;48.562;12.108;2022-12-13T03:18:14;67.53;;;38.97;;
26062;SDS011;13837;48.562;12.108;2022-12-13T03:20:46;70.40;;;38.43;;
26062;SDS011;13837;48.562;12.108;2022-12-13T03:23:36;64.63;;;36.03;;
26062;SDS011;13837;48.562;12.108;2022-12-13T03:26:11;67.50;;;40.73;;
26062;SDS011;13837;48.562;12.108;2022-12-13T03:28:40;70.75;;;42.38;;
26062;SDS011;13837;48.562;12.108;2022-12-13T03:31:06;255.27;;;55.40;;
26062;SDS011;13837;48.562;12.108;2022-12-13T03:33:32;69.53;;;42.37;;
26062;SDS011;13837;48.562;12.108;2022-12-13T03:35:58;61.37;;;40.77;;
26062;SDS011;13837;48.562;12.108;2022-12-13T03:38:25;66.03;;;48.30;;
26062;SDS011;13837;48.562;12.108;2022-12-13T03:40:58;68.37;;;45.20;;
26062;SDS011;13837;48.562;12.108;2022-12-13T03:43:27;57.97;;;45.70;;
26062;SDS011;13837;48.562;12.108;2022-12-13T03:45:53;61.17;;;43.13;;
26062;SDS011;13837;48.562;12.108;2022-12-13T03:48:19;63.07;;;45.73;;
26062;SDS011;13837;48.562;12.108;2022-12-13T03:50:46;63.17;;;43.60;;
26062;SDS011;13837;48.562;12.108;2022-12-13T03:53:12;60.60;;;43.50;;
26062;SDS011;13837;48.562;12.108;2022-12-13T03:55:37;62.13;;;44.07;;
26062;SDS011;13837;48.562;12.108;2022-12-13T03:58:03;56.40;;;42.30;;
26062;SDS011;13837;48.562;12.108;2022-12-13T04:00:29;54.93;;;39.23;;
26062;SDS011;13837;48.562;12.108;2022-12-13T04:02:55;62.13;;;42.33;;
26062;SDS011;13837;48.562;12.108;2022-12-13T04:05:21;82.10;;;42.83;;
26062;SDS011;13837;48.562;12.108;2022-12-13T04:07:46;59.70;;;41.00;;
26062;SDS011;13837;48.562;12.108;2022-12-13T04:10:12;56.27;;;38.57;;
26062;SDS011;13837;48.562;12.108;2022-12-13T04:12:38;52.03;;;40.33;;
26062;SDS011;13837;48.562;12.108;2022-12-13T04:15:22;67.97;;;39.90;;
26062;SDS011;13837;48.562;12.108;2022-12-13T04:17:48;55.00;;;38.07;;
26062;SDS011;13837;48.562;12.108;2022-12-13T04:20:14;53.77;;;38.50;;
26062;SDS011;13837;48.562;12.108;2022-12-13T04:22:39;58.90;;;38.80;;
26062;SDS011;13837;48.562;12.108;2022-12-13T04:25:05;53.10;;;35.83;;
26062;SDS011;13837;48.562;12.108;2022-12-13T04:27:32;52.72;;;38.60;;
26062;SDS011;13837;48.562;12.108;2022-12-13T04:29:57;61.50;;;36.30;;
26062;SDS011;13837;48.562;12.108;2022-12-13T04:32:23;56.57;;;34.60;;
26062;SDS011;13837;48.562;12.108;2022-12-13T04:34:49;59.77;;;39.80;;
26062;SDS011;13837;48.562;12.108;2022-12-13T04:37:15;84.83;;;37.37;;
26062;SDS011;13837;48.562;12.108;2022-12-13T04:39:41;52.00;;;35.97;;
26062;SDS011;13837;48.562;12.108;2022-12-13T04:42:06;59.47;;;48.47;;
26062;SDS011;13837;48.562;12.108;2022-12-13T04:44:32;64.20;;;49.17;;
26062;SDS011;13837;48.562;12.108;2022-12-13T04:46:58;73.33;;;50.00;;
26062;SDS011;13837;48.562;12.108;2022-12-13T04:49:24;65.23;;;46.90;;
26062;SDS011;13837;48.562;12.108;2022-12-13T04:51:49;66.17;;;45.00;;
26062;SDS011;13837;48.562;12.108;2022-12-13T04:54:15;55.03;;;37.13;;
26062;SDS011;13837;48.562;12.108;2022-12-13T04:56:41;65.87;;;36.60;;
26062;SDS011;13837;48.562;12.108;2022-12-13T04:59:07;51.60;;;34.30;;
26062;SDS011;13837;48.562;12.108;2022-12-13T05:01:32;50.27;;;33.60;;
26062;SDS011;13837;48.562;12.108;2022-12-13T05:04:00;58.22;;;43.30;;
26062;SDS011;13837;48.562;12.108;2022-12-13T05:06:27;57.77;;;44.47;;
26062;SDS011;13837;48.562;12.108;2022-12-13T05:08:53;64.22;;;41.55;;
26062;SDS011;13837;48.562;12.108;2022-12-13T05:11:20;54.22;;;36.63;;
26062;SDS011;13837;48.562;12.108;2022-12-13T05:13:45;67.57;;;39.55;;
26062;SDS011;13837;48.562;12.108;2022-12-13T05:16:11;56.78;;;43.72;;
26062;SDS011;13837;48.562;12.108;2022-12-13T05:18:37;64.13;;;38.37;;
26062;SDS011;13837;48.562;12.108;2022-12-13T05:21:03;53.50;;;42.33;;
26062;SDS011;13837;48.562;12.108;2022-12-13T05:23:31;62.58;;;39.35;;
26062;SDS011;13837;48.562;12.108;2022-12-13T05:25:57;56.50;;;38.40;;
26062;SDS011;13837;48.562;12.108;2022-12-13T05:28:23;56.27;;;39.33;;
26062;SDS011;13837;48.562;12.108;2022-12-13T05:30:52;57.90;;;40.35;;
26062;SDS011;13837;48.562;12.108;2022-12-13T05:33:19;55.05;;;39.42;;
26062;SDS011;13837;48.562;12.108;2022-12-13T05:35:46;70.13;;;41.83;;
26062;SDS011;13837;48.562;12.108;2022-12-13T05:38:12;56.17;;;39.50;;
26062;SDS011;13837;48.562;12.108;2022-12-13T05:40:38;56.93;;;41.33;;
26062;SDS011;13837;48.562;12.108;2022-12-13T05:43:04;52.90;;;39.40;;
26062;SDS011;13837;48.562;12.108;2022-12-13T05:45:30;57.60;;;40.23;;
26062;SDS011;13837;48.562;12.108;2022-12-13T05:47:56;51.80;;;41.53;;
26062;SDS011;13837;48.562;12.108;2022-12-13T05:50:23;53.47;;;37.87;;
26062;SDS011;13837;48.562;12.108;2022-12-13T05:52:49;49.87;;;39.63;;
26062;SDS011;13837;48.562;12.108;2022-12-13T05:55:15;45.67;;;34.90;;
26062;SDS011;13837;48.562;12.108;2022-12-13T05:57:42;45.95;;;36.53;;
26062;SDS011;13837;48.562;12.108;2022-12-13T06:00:08;60.28;;;39.65;;
26062;SDS011;13837;48.562;12.108;2022-12-13T06:05:04;66.55;;;39.95;;
26062;SDS011;13837;48.562;12.108;2022-12-13T06:07:30;56.67;;;35.95;;
26062;SDS011;13837;48.562;12.108;2022-12-13T06:09:56;52.33;;;38.30;;
26062;SDS011;13837;48.562;12.108;2022-12-13T06:12:23;56.88;;;35.65;;
26062;SDS011;13837;48.562;12.108;2022-12-13T06:14:52;56.83;;;38.28;;
26062;SDS011;13837;48.562;12.108;2022-12-13T06:17:18;57.75;;;37.90;;
26062;SDS011;13837;48.562;12.108;2022-12-13T06:19:49;51.50;;;37.63;;
26062;SDS011;13837;48.562;12.108;2022-12-13T06:22:16;61.05;;;39.72;;
26062;SDS011;13837;48.562;12.108;2022-12-13T06:24:43;54.85;;;40.53;;
26062;SDS011;13837;48.562;12.108;2022-12-13T06:27:09;57.30;;;39.88;;
26062;SDS011;13837;48.562;12.108;2022-12-13T06:29:34;55.58;;;40.13;;
26062;SDS011;13837;48.562;12.108;2022-12-13T06:32:00;58.13;;;39.45;;
26062;SDS011;13837;48.562;12.108;2022-12-13T06:34:28;61.05;;;39.45;;
26062;SDS011;13837;48.562;12.108;2022-12-13T06:36:54;57.88;;;37.03;;
26062;SDS011;13837;48.562;12.108;2022-12-13T06:39:21;67.75;;;37.80;;
26062;SDS011;13837;48.562;12.108;2022-12-13T06:41:47;54.55;;;39.50;;
26062;SDS011;13837;48.562;12.108;2022-12-13T06:44:12;60.78;;;38.15;;
26062;SDS011;13837;48.562;12.108;2022-12-13T06:46:38;59.38;;;39.20;;
26062;SDS011;13837;48.562;12.108;2022-12-13T06:49:04;56.10;;;37.75;;
26062;SDS011;13837;48.562;12.108;2022-12-13T06:51:31;59.97;;;36.45;;
26062;SDS011;13837;48.562;12.108;2022-12-13T06:53:58;118.10;;;58.97;;
26062;SDS011;13837;48.562;12.108;2022-12-13T06:56:23;73.85;;;43.50;;
26062;SDS011;13837;48.562;12.108;2022-12-13T06:58:49;59.85;;;40.05;;
26062;SDS011;13837;48.562;12.108;2022-12-13T07:01:16;62.20;;;38.92;;
26062;SDS011;13837;48.562;12.108;2022-12-13T07:03:42;61.05;;;38.08;;
26062;SDS011;13837;48.562;12.108;2022-12-13T07:06:16;57.03;;;40.30;;
26062;SDS011;13837;48.562;12.108;2022-12-13T07:08:48;60.92;;;38.72;;
26062;SDS011;13837;48.562;12.108;2022-12-13T07:11:16;72.18;;;41.42;;
26062;SDS011;13837;48.562;12.108;2022-12-13T07:13:43;90.47;;;50.88;;
26062;SDS011;13837;48.562;12.108;2022-12-13T07:16:09;65.93;;;40.67;;
26062;SDS011;13837;48.562;12.108;2022-12-13T07:18:36;63.60;;;38.45;;
26062;SDS011;13837;48.562;12.108;2022-12-13T07:21:06;56.63;;;36.03;;
26062;SDS011;13837;48.562;12.108;2022-12-13T07:23:36;61.90;;;38.50;;
26062;SDS011;13837;48.562;12.108;2022-12-13T07:26:03;63.63;;;36.77;;
26062;SDS011;13837;48.562;12.108;2022-12-13T07:28:31;61.20;;;37.47;;
26062;SDS011;13837;48.562;12.108;2022-12-13T07:31:02;51.20;;;43.67;;
26062;SDS011;13837;48.562;12.108;2022-12-13T07:33:29;75.93;;;42.10;;
26062;SDS011;13837;48.562;12.108;2022-12-13T07:35:59;61.53;;;38.57;;
26062;SDS011;13837;48.562;12.108;2022-12-13T07:38:48;64.80;;;36.00;;
26062;SDS011;13837;48.562;12.108;2022-12-13T07:41:15;61.70;;;41.40;;
26062;SDS011;13837;48.562;12.108;2022-12-13T07:43:42;62.00;;;40.25;;
26062;SDS011;13837;48.562;12.108;2022-12-13T07:46:08;67.32;;;40.35;;
26062;SDS011;13837;48.562;12.108;2022-12-13T07:48:35;61.55;;;39.63;;
26062;SDS011;13837;48.562;12.108;2022-12-13T07:51:02;69.80;;;47.42;;
26062;SDS011;13837;48.562;12.108;2022-12-13T07:53:31;63.88;;;43.88;;
26062;SDS011;13837;48.562;12.108;2022-12-13T07:55:59;55.45;;;37.58;;
26062;SDS011;13837;48.562;12.108;2022-12-13T08:00:57;53.30;;;38.93;;
26062;SDS011;13837;48.562;12.108;2022-12-13T08:03:25;59.63;;;39.53;;
26062;SDS011;13837;48.562;12.108;2022-12-13T08:05:58;58.87;;;37.40;;
26062;SDS011;13837;48.562;12.108;2022-12-13T08:08:30;50.75;;;44.30;;
26062;SDS011;13837;48.562;12.108;2022-12-13T08:11:00;58.60;;;37.08;;
26062;SDS011;13837;48.562;12.108;2022-12-13T08:13:29;64.95;;;43.42;;
26062;SDS011;13837;48.562;12.108;2022-12-13T08:16:05;65.53;;;43.83;;
26062;SDS011;13837;48.562;12.108;2022-12-13T08:18:32;58.42;;;43.42;;
26062;SDS011;13837;48.562;12.108;2022-12-13T08:21:04;72.25;;;51.35;;
26062;SDS011;13837;48.562;12.108;2022-12-13T08:23:31;70.20;;;51.67;;
26062;SDS011;13837;48.562;12.108;2022-12-13T08:25:58;64.57;;;46.90;;
26062;SDS011;13837;48.562;12.108;2022-12-13T08:28:25;58.65;;;43.03;;
26062;SDS011;13837;48.562;12.108;2022-12-13T08:30:51;73.07;;;44.28;;
26062;SDS011;13837;48.562;12.108;2022-12-13T08:33:17;64.90;;;42.83;;
26062;SDS011;13837;48.562;12.108;2022-12-13T08:35:43;62.25;;;43.08;;
26062;SDS011;13837;48.562;12.108;2022-12-13T08:38:10;57.80;;;42.80;;
26062;SDS011;13837;48.562;12.108;2022-12-13T08:40:36;76.20;;;46.85;;
26062;SDS011;13837;48.562;12.108;2022-12-13T08:43:02;66.45;;;48.15;;
26062;SDS011;13837;48.562;12.108;2022-12-13T08:45:29;62.50;;;47.50;;
26062;SDS011;13837;48.562;12.108;2022-12-13T08:47:58;58.10;;;47.20;;
26062;SDS011;13837;48.562;12.108;2022-12-13T08:50:26;60.85;;;45.47;;
26062;SDS011;13837;48.562;12.108;2022-12-13T08:52:53;59.10;;;42.85;;
26062;SDS011;13837;48.562;12.108;2022-12-13T08:55:19;70.95;;;49.90;;
26062;SDS011;13837;48.562;12.108;2022-12-13T08:57:45;57.13;;;44.17;;
26062;SDS011;13837;48.562;12.108;2022-12-13T09:00:12;64.57;;;44.13;;
26062;SDS011;13837;48.562;12.108;2022-12-13T09:02:40;72.72;;;44.47;;
26062;SDS011;13837;48.562;12.108;2022-12-13T09:05:06;88.38;;;51.42;;
26062;SDS011;13837;48.562;12.108;2022-12-13T09:07:33;96.38;;;53.67;;
26062;SDS011;13837;48.562;12.108;2022-12-13T09:10:08;109.53;;;58.15;;
26062;SDS011;13837;48.562;12.108;2022-12-13T09:12:34;57.03;;;42.50;;
26062;SDS011;13837;48.562;12.108;2022-12-13T09:15:00;58.42;;;41.38;;
26062;SDS011;13837;48.562;12.108;2022-12-13T09:17:25;59.63;;;40.30;;
26062;SDS011;13837;48.562;12.108;2022-12-13T09:19:51;52.33;;;39.55;;
26062;SDS011;13837;48.562;12.108;2022-12-13T09:22:17;54.03;;;38.15;;
26062;SDS011;13837;48.562;12.108;2022-12-13T09:24:45;53.47;;;38.50;;
26062;SDS011;13837;48.562;12.108;2022-12-13T09:27:11;52.33;;;42.17;;
26062;SDS011;13837;48.562;12.108;2022-12-13T09:29:37;52.28;;;42.85;;
26062;SDS011;13837;48.562;12.108;2022-12-13T09:32:03;51.88;;;43.88;;
26062;SDS011;13837;48.562;12.108;2022-12-13T09:34:29;52.88;;;42.75;;
26062;SDS011;13837;48.562;12.108;2022-12-13T09:36:57;53.50;;;39.15;;
26062;SDS011;13837;48.562;12.108;2022-12-13T09:39:22;46.13;;;41.00;;
26062;SDS011;13837;48.562;12.108;2022-12-13T09:41:49;54.33;;;41.72;;
26062;SDS011;13837;48.562;12.108;2022-12-13T09:46:52;47.42;;;36.25;;
26062;SDS011;13837;48.562;12.108;2022-12-13T09:49:24;51.22;;;36.60;;
26062;SDS011;13837;48.562;12.108;2022-12-13T09:51:56;82.63;;;49.70;;
26062;SDS011;13837;48.562;12.108;2022-12-13T09:54:26;67.88;;;45.08;;
26062;SDS011;13837;48.562;12.108;2022-12-13T09:56:55;71.07;;;45.80;;
26062;SDS011;13837;48.562;12.108;2022-12-13T09:59:29;73.82;;;35.95;;
26062;SDS011;13837;48.562;12.108;2022-12-13T10:02:01;56.30;;;39.88;;
26062;SDS011;13837;48.562;12.108;2022-12-13T10:04:41;42.00;;;30.35;;
26062;SDS011;13837;48.562;12.108;2022-12-13T10:07:10;41.35;;;27.83;;
26062;SDS011;13837;48.562;12.108;2022-12-13T10:09:42;36.85;;;28.02;;
26062;SDS011;13837;48.562;12.108;2022-12-13T10:12:09;41.55;;;28.75;;
26062;SDS011;13837;48.562;12.108;2022-12-13T10:14:41;42.78;;;26.17;;
26062;SDS011;13837;48.562;12.108;2022-12-13T10:17:14;36.92;;;24.70;;
26062;SDS011;13837;48.562;12.108;2022-12-13T10:19:43;45.17;;;30.05;;
26062;SDS011;13837;48.562;12.108;2022-12-13T10:22:14;61.38;;;38.42;;
26062;SDS011;13837;48.562;12.108;2022-12-13T10:32:27;40.95;;;29.95;;
26062;SDS011;13837;48.562;12.108;2022-12-13T10:34:56;41.13;;;28.50;;
26062;SDS011;13837;48.562;12.108;2022-12-13T10:39:48;44.33;;;31.40;;
26062;SDS011;13837;48.562;12.108;2022-12-13T10:42:18;43.47;;;31.30;;
26062;SDS011;13837;48.562;12.108;2022-12-13T10:44:45;44.17;;;30.55;;
26062;SDS011;13837;48.562;12.108;2022-12-13T10:47:13;43.45;;;30.05;;
26062;SDS011;13837;48.562;12.108;2022-12-13T10:54:54;35.72;;;27.27;;
26062;SDS011;13837;48.562;12.108;2022-12-13T10:57:22;44.22;;;29.40;;
26062;SDS011;13837;48.562;12.108;2022-12-13T10:59:48;48.85;;;36.42;;
26062;SDS011;13837;48.562;12.108;2022-12-13T11:04:52;33.65;;;27.67;;
26062;SDS011;13837;48.562;12.108;2022-12-13T11:07:20;50.70;;;33.83;;
26062;SDS011;13837;48.562;12.108;2022-12-13T11:09:53;57.17;;;41.50;;
26062;SDS011;13837;48.562;12.108;2022-12-13T11:12:20;80.22;;;53.40;;
26062;SDS011;13837;48.562;12.108;2022-12-13T11:14:52;49.80;;;40.38;;
26062;SDS011;13837;48.562;12.108;2022-12-13T11:17:28;30.58;;;24.85;;
26062;SDS011;13837;48.562;12.108;2022-12-13T11:19:56;26.98;;;23.77;;
26062;SDS011;13837;48.562;12.108;2022-12-13T11:22:30;28.27;;;25.38;;
26062;SDS011;13837;48.562;12.108;2022-12-13T11:33:37;48.92;;;28.45;;
26062;SDS011;13837;48.562;12.108;2022-12-13T11:41:28;51.50;;;29.75;;
26062;SDS011;13837;48.562;12.108;2022-12-13T11:44:00;72.35;;;36.67;;
26062;SDS011;13837;48.562;12.108;2022-12-13T11:46:39;79.22;;;41.20;;
26062;SDS011;13837;48.562;12.108;2022-12-13T11:49:14;79.05;;;39.38;;
26062;SDS011;13837;48.562;12.108;2022-12-13T11:51:49;38.22;;;27.10;;
26062;SDS011;13837;48.562;12.108;2022-12-13T11:56:47;25.45;;;22.98;;
26062;SDS011;13837;48.562;12.108;2022-12-13T12:02:06;25.35;;;22.30;;
26062;SDS011;13837;48.562;12.108;2022-12-13T12:04:49;24.40;;;21.95;;
26062;SDS011;13837;48.562;12.108;2022-12-13T12:13:09;24.67;;;22.08;;
26062;SDS011;13837;48.562;12.108;2022-12-13T12:15:46;24.17;;;20.73;;
26062;SDS011;13837;48.562;12.108;2022-12-13T12:18:17;23.30;;;20.80;;
26062;SDS011;13837;48.562;12.108;2022-12-13T12:26:56;24.10;;;22.00;;
26062;SDS011;13837;48.562;12.108;2022-12-13T12:43:32;32.35;;;29.85;;
26062;SDS011;13837;48.562;12.108;2022-12-13T13:00:40;26.85;;;23.15;;
26062;SDS011;13837;48.562;12.108;2022-12-13T13:03:26;29.42;;;24.05;;
26062;SDS011;13837;48.562;12.108;2022-12-13T13:08:33;28.30;;;23.95;;
26062;SDS011;13837;48.562;12.108;2022-12-13T13:11:12;31.70;;;24.50;;
26062;SDS011;13837;48.562;12.108;2022-12-13T13:18:58;30.50;;;24.20;;
26062;SDS011;13837;48.562;12.108;2022-12-13T13:21:56;26.58;;;23.92;;
26062;SDS011;13837;48.562;12.108;2022-12-13T13:24:27;27.33;;;24.00;;
26062;SDS011;13837;48.562;12.108;2022-12-13T13:27:23;26.45;;;23.70;;
26062;SDS011;13837;48.562;12.108;2022-12-13T13:32:57;26.25;;;23.60;;
26062;SDS011;13837;48.562;12.108;2022-12-13T13:38:03;27.77;;;23.80;;
26062;SDS011;13837;48.562;12.108;2022-12-13T13:40:52;25.88;;;23.17;;
26062;SDS011;13837;48.562;12.108;2022-12-13T13:43:28;24.25;;;21.75;;
26062;SDS011;13837;48.562;12.108;2022-12-13T13:46:16;25.45;;;22.77;;
26062;SDS011;13837;48.562;12.108;2022-12-13T14:25:24;23.75;;;21.40;;
26062;SDS011;13837;48.562;12.108;2022-12-13T14:30:34;24.65;;;21.83;;
26062;SDS011;13837;48.562;12.108;2022-12-13T14:33:03;23.98;;;21.15;;
26062;SDS011;13837;48.562;12.108;2022-12-13T14:35:30;22.83;;;20.70;;
26062;SDS011;13837;48.562;12.108;2022-12-13T14:40:28;25.15;;;21.95;;
26062;SDS011;13837;48.562;12.108;2022-12-13T14:42:59;25.30;;;22.75;;
26062;SDS011;13837;48.562;12.108;2022-12-13T14:45:29;25.77;;;23.20;;
26062;SDS011;13837;48.562;12.108;2022-12-13T14:47:58;25.73;;;23.05;;
26062;SDS011;13837;48.562;12.108;2022-12-13T14:50:28;24.38;;;22.08;;
26062;SDS011;13837;48.562;12.108;2022-12-13T14:52:57;25.50;;;22.88;;
26062;SDS011;13837;48.562;12.108;2022-12-13T14:55:31;33.92;;;27.10;;
26062;SDS011;13837;48.562;12.108;2022-12-13T14:58:00;44.83;;;30.00;;
26062;SDS011;13837;48.562;12.108;2022-12-13T15:00:47;33.03;;;27.23;;
26062;SDS011;13837;48.562;12.108;2022-12-13T15:03:20;27.20;;;22.35;;
26062;SDS011;13837;48.562;12.108;2022-12-13T15:05:47;26.33;;;23.48;;
26062;SDS011;13837;48.562;12.108;2022-12-13T15:08:18;24.65;;;22.25;;
26062;SDS011;13837;48.562;12.108;2022-12-13T15:10:46;26.65;;;23.95;;
26062;SDS011;13837;48.562;12.108;2022-12-13T15:16:00;30.73;;;27.63;;
26062;SDS011;13837;48.562;12.108;2022-12-13T15:19:13;31.67;;;28.73;;
26062;SDS011;13837;48.562;12.108;2022-12-13T15:24:37;46.95;;;40.35;;
26062;SDS011;13837;48.562;12.108;2022-12-13T15:27:16;57.60;;;51.17;;
26062;SDS011;13837;48.562;12.108;2022-12-13T15:29:43;51.60;;;46.10;;
26062;SDS011;13837;48.562;12.108;2022-12-13T15:32:15;39.10;;;32.92;;
26062;SDS011;13837;48.562;12.108;2022-12-13T15:34:46;39.60;;;35.35;;
26062;SDS011;13837;48.562;12.108;2022-12-13T15:40:14;65.90;;;48.50;;
26062;SDS011;13837;48.562;12.108;2022-12-13T15:42:43;67.65;;;46.95;;
26062;SDS011;13837;48.562;12.108;2022-12-13T15:45:20;46.40;;;38.88;;
26062;SDS011;13837;48.562;12.108;2022-12-13T15:47:52;95.68;;;46.17;;
26062;SDS011;13837;48.562;12.108;2022-12-13T15:50:29;60.47;;;46.28;;
26062;SDS011;13837;48.562;12.108;2022-12-13T15:53:20;47.72;;;42.60;;
26062;SDS011;13837;48.562;12.108;2022-12-13T15:55:49;37.38;;;33.58;;
26062;SDS011;13837;48.562;12.108;2022-12-13T15:58:26;34.17;;;30.92;;
26062;SDS011;13837;48.562;12.108;2022-12-13T16:01:00;34.55;;;30.95;;
26062;SDS011;13837;48.562;12.108;2022-12-13T16:03:47;34.90;;;31.60;;
26062;SDS011;13837;48.562;12.108;2022-12-13T16:06:16;31.25;;;27.75;;
26062;SDS011;13837;48.562;12.108;2022-12-13T16:08:47;31.27;;;27.42;;
26062;SDS011;13837;48.562;12.108;2022-12-13T16:11:15;31.67;;;28.55;;
26062;SDS011;13837;48.562;12.108;2022-12-13T16:16:50;30.55;;;27.55;;
26062;SDS011;13837;48.562;12.108;2022-12-13T16:19:19;29.77;;;26.70;;
26062;SDS011;13837;48.562;12.108;2022-12-13T16:21:45;28.40;;;25.75;;
26062;SDS011;13837;48.562;12.108;2022-12-13T16:24:11;27.27;;;24.30;;
26062;SDS011;13837;48.562;12.108;2022-12-13T16:26:36;27.77;;;25.08;;
26062;SDS011;13837;48.562;12.108;2022-12-13T16:29:08;26.83;;;24.42;;
26062;SDS011;13837;48.562;12.108;2022-12-13T16:31:41;33.50;;;29.60;;
26062;SDS011;13837;48.562;12.108;2022-12-13T16:34:08;39.72;;;33.05;;
26062;SDS011;13837;48.562;12.108;2022-12-13T16:36:34;51.90;;;37.97;;
26062;SDS011;13837;48.562;12.108;2022-12-13T16:39:01;65.60;;;41.83;;
26062;SDS011;13837;48.562;12.108;2022-12-13T16:41:34;44.00;;;31.90;;
26062;SDS011;13837;48.562;12.108;2022-12-13T16:44:02;35.83;;;31.10;;
26062;SDS011;13837;48.562;12.108;2022-12-13T16:46:30;41.65;;;32.72;;
26062;SDS011;13837;48.562;12.108;2022-12-13T16:48:56;42.80;;;28.13;;
26062;SDS011;13837;48.562;12.108;2022-12-13T16:51:21;29.42;;;26.40;;
26062;SDS011;13837;48.562;12.108;2022-12-13T16:53:47;37.67;;;28.95;;
26062;SDS011;13837;48.562;12.108;2022-12-13T16:56:13;34.60;;;28.02;;
26062;SDS011;13837;48.562;12.108;2022-12-13T16:58:46;49.47;;;34.65;;
26062;SDS011;13837;48.562;12.108;2022-12-13T17:01:13;69.07;;;42.10;;
26062;SDS011;13837;48.562;12.108;2022-12-13T17:03:41;100.60;;;59.92;;
26062;SDS011;13837;48.562;12.108;2022-12-13T17:06:08;102.18;;;58.65;;
26062;SDS011;13837;48.562;12.108;2022-12-13T17:08:36;96.93;;;59.47;;
26062;SDS011;13837;48.562;12.108;2022-12-13T17:11:05;136.48;;;67.43;;
26062;SDS011;13837;48.562;12.108;2022-12-13T17:13:38;66.72;;;44.22;;
26062;SDS011;13837;48.562;12.108;2022-12-13T17:16:11;46.40;;;34.13;;
26062;SDS011;13837;48.562;12.108;2022-12-13T17:18:38;33.60;;;29.95;;
26062;SDS011;13837;48.562;12.108;2022-12-13T17:21:07;40.22;;;30.45;;
26062;SDS011;13837;48.562;12.108;2022-12-13T17:23:34;38.03;;;29.90;;
26062;SDS011;13837;48.562;12.108;2022-12-13T17:26:04;45.42;;;36.88;;